Time;durP1;ratioP1;P1;durP2;ratioP2;P2;SDS_P1;SDS_P2;PMS_P1;PMS_P2;Temp;Humidity;BMP_temperature;BMP_pressure;BME280_temperature;BME280_humidity;BME280_pressure;Samples;Min_cycle;Max_cycle;Signal;HPM_P1;HPM_P2
2023/12/20 00:01:07;;;;;;;18.38;2.78;;;6.90;99.90;;;;;;5013873;28;20045;-75
2023/12/20 00:03:33;;;;;;;18.85;2.92;;;7.00;99.90;;;;;;5031875;28;20036;-78
2023/12/20 00:05:58;;;;;;;19.70;3.03;;;7.00;99.90;;;;;;5031697;28;20096;-75
2023/12/20 00:08:24;;;;;;;24.13;3.00;;;7.00;99.90;;;;;;5013944;28;20481;-76
2023/12/20 00:10:50;;;;;;;20.88;2.80;;;7.00;99.90;;;;;;5031559;28;20021;-76
2023/12/20 00:13:15;;;;;;;18.25;2.60;;;7.00;99.90;;;;;;5031590;28;20057;-75
2023/12/20 00:15:41;;;;;;;18.42;3.10;;;7.00;99.90;;;;;;5014273;28;20026;-74
2023/12/20 00:18:07;;;;;;;18.45;3.30;;;7.00;99.90;;;;;;5031415;28;20029;-75
2023/12/20 00:20:33;;;;;;;38.08;3.47;;;7.00;99.90;;;;;;5030658;28;20367;-75
2023/12/20 00:22:58;;;;;;;22.20;3.33;;;7.00;99.90;;;;;;5030786;28;20030;-75
2023/12/20 00:25:25;;;;;;;28.38;3.05;;;7.00;99.90;;;;;;5031351;28;20029;-76
2023/12/20 00:27:50;;;;;;;21.05;2.72;;;7.00;99.90;;;;;;5013803;28;20049;-76
2023/12/20 00:30:16;;;;;;;15.70;2.28;;;7.00;99.90;;;;;;5031280;28;20478;-76
2023/12/20 00:32:48;;;;;;;16.35;2.40;;;7.00;99.90;;;;;;5031589;28;20025;-76
2023/12/20 00:35:15;;;;;;;13.65;2.25;;;7.00;99.90;;;;;;5011339;28;20485;-78
2023/12/20 00:37:41;;;;;;;18.80;2.97;;;7.10;99.90;;;;;;5013622;28;20060;-76
2023/12/20 00:40:07;;;;;;;20.55;2.55;;;7.10;99.90;;;;;;5014136;28;20033;-75
2023/12/20 00:42:33;;;;;;;19.52;2.30;;;7.10;99.90;;;;;;5031584;28;20116;-76
2023/12/20 00:45:00;;;;;;;19.45;2.20;;;7.10;99.90;;;;;;5013841;28;20033;-76
2023/12/20 00:47:25;;;;;;;20.77;2.55;;;7.00;99.90;;;;;;5017244;28;20030;-76
2023/12/20 00:49:51;;;;;;;19.17;2.58;;;7.10;99.90;;;;;;5035454;28;20470;-76
2023/12/20 00:52:17;;;;;;;26.40;3.08;;;7.00;99.90;;;;;;5035407;28;20462;-77
2023/12/20 00:54:43;;;;;;;20.75;2.70;;;7.00;99.90;;;;;;5035457;28;20100;-76
2023/12/20 00:57:09;;;;;;;25.80;3.13;;;7.10;99.90;;;;;;5017704;28;20033;-77
2023/12/20 00:59:35;;;;;;;21.30;3.55;;;7.10;99.90;;;;;;5017430;28;20029;-77
2023/12/20 01:02:01;;;;;;;24.73;3.60;;;7.00;99.90;;;;;;5035795;28;20029;-77
2023/12/20 01:04:27;;;;;;;13.82;1.90;;;7.00;99.90;;;;;;5035636;28;20095;-75
2023/12/20 01:06:53;;;;;;;16.38;2.40;;;7.00;99.90;;;;;;5035061;28;20030;-75
2023/12/20 01:09:19;;;;;;;25.92;3.05;;;7.10;99.90;;;;;;5034811;28;20048;-77
2023/12/20 01:11:46;;;;;;;16.63;2.25;;;7.10;99.90;;;;;;5034772;28;20462;-76
2023/12/20 01:14:12;;;;;;;15.43;2.78;;;7.10;99.90;;;;;;5034559;28;20032;-76
2023/12/20 01:16:38;;;;;;;14.52;2.45;;;7.10;99.90;;;;;;5034426;28;20383;-77
2023/12/20 01:19:03;;;;;;;11.00;1.85;;;7.10;99.90;;;;;;5034662;28;20055;-76
2023/12/20 01:21:29;;;;;;;23.70;3.03;;;7.10;99.90;;;;;;5035210;28;20056;-76
2023/12/20 01:23:55;;;;;;;10.85;2.10;;;7.10;99.90;;;;;;5017033;28;20106;-75
2023/12/20 01:26:21;;;;;;;17.98;2.70;;;7.20;99.90;;;;;;5034647;28;20033;-77
2023/12/20 01:28:47;;;;;;;16.77;3.03;;;7.20;99.90;;;;;;5013256;28;20037;-76
2023/12/20 01:31:13;;;;;;;21.20;1.98;;;7.20;99.90;;;;;;5013812;28;20030;-76
2023/12/20 01:33:38;;;;;;;16.45;2.15;;;7.10;99.90;;;;;;5014610;28;20469;-76
2023/12/20 01:36:04;;;;;;;16.42;2.40;;;7.20;99.90;;;;;;5014610;28;20437;-76
2023/12/20 01:38:30;;;;;;;25.63;3.10;;;7.10;99.90;;;;;;5014581;28;20029;-75
2023/12/20 01:40:56;;;;;;;20.25;2.85;;;7.10;99.90;;;;;;4996887;28;20092;-77
2023/12/20 01:43:21;;;;;;;16.08;2.28;;;7.10;99.90;;;;;;5014125;28;20044;-76
2023/12/20 01:45:48;;;;;;;17.58;2.42;;;7.10;99.90;;;;;;4996492;28;20045;-77
2023/12/20 01:48:16;;;;;;;18.63;3.85;;;7.10;99.90;;;;;;5014694;28;20026;-76
2023/12/20 01:50:43;;;;;;;22.67;2.90;;;7.10;99.90;;;;;;5014741;28;20072;-76
2023/12/20 01:53:11;;;;;;;18.92;2.70;;;7.10;99.90;;;;;;5014293;28;20034;-75
2023/12/20 01:55:40;;;;;;;16.85;3.05;;;7.20;99.90;;;;;;5014892;28;20594;-75
2023/12/20 01:58:10;;;;;;;13.38;3.28;;;7.10;99.90;;;;;;5013558;28;20033;-75
2023/12/20 02:00:37;;;;;;;17.45;2.83;;;7.20;99.90;;;;;;5013765;28;20053;-75
2023/12/20 02:03:03;;;;;;;28.35;2.95;;;7.20;99.90;;;;;;5013327;28;20038;-76
2023/12/20 02:05:33;;;;;;;18.42;2.90;;;7.20;99.90;;;;;;4996079;28;20093;-76
2023/12/20 02:07:59;;;;;;;14.05;2.25;;;7.20;99.90;;;;;;5013617;28;20038;-76
2023/12/20 02:10:26;;;;;;;18.77;4.43;;;7.20;99.90;;;;;;5014296;28;20061;-77
2023/12/20 02:12:52;;;;;;;20.92;3.55;;;7.20;99.90;;;;;;4996652;28;20269;-76
2023/12/20 02:15:18;;;;;;;20.35;2.30;;;7.20;99.90;;;;;;4995722;28;20064;-77
2023/12/20 02:17:45;;;;;;;18.42;3.03;;;7.30;99.90;;;;;;5013285;28;20018;-76
2023/12/20 02:20:11;;;;;;;26.38;4.53;;;7.20;99.90;;;;;;5013199;28;20025;-76
2023/12/20 02:22:36;;;;;;;14.95;2.22;;;7.20;99.90;;;;;;4995864;28;20042;-77
2023/12/20 02:25:02;;;;;;;29.02;2.92;;;7.20;99.90;;;;;;4995690;28;20026;-75
2023/12/20 02:27:29;;;;;;;16.90;3.05;;;7.30;99.90;;;;;;5013135;28;20448;-76
2023/12/20 02:29:55;;;;;;;11.75;2.50;;;7.30;99.90;;;;;;5013805;28;20124;-76
2023/12/20 02:32:22;;;;;;;21.63;2.53;;;7.30;99.90;;;;;;5013316;28;20105;-75
2023/12/20 02:34:49;;;;;;;9.32;2.28;;;7.30;99.90;;;;;;5013659;28;20021;-76
2023/12/20 02:37:15;;;;;;;15.95;2.63;;;7.30;99.90;;;;;;4996181;28;20471;-76
2023/12/20 02:39:40;;;;;;;19.33;2.67;;;7.30;99.90;;;;;;4996263;28;20038;-76
2023/12/20 02:42:06;;;;;;;15.95;2.25;;;7.30;99.90;;;;;;5013817;28;20037;-76
2023/12/20 02:44:32;;;;;;;15.65;2.40;;;7.30;99.90;;;;;;5013806;28;20122;-75
2023/12/20 02:46:57;;;;;;;12.98;2.08;;;7.30;99.90;;;;;;4994631;28;20068;-76
2023/12/20 02:49:26;;;;;;;14.50;2.47;;;7.30;99.90;;;;;;5013746;28;20088;-77
2023/12/20 02:51:52;;;;;;;17.33;3.25;;;7.30;99.90;;;;;;5013676;28;20022;-77
2023/12/20 02:54:18;;;;;;;15.73;2.75;;;7.40;99.90;;;;;;4995500;28;20049;-77
2023/12/20 02:56:44;;;;;;;18.42;3.63;;;7.30;99.90;;;;;;5013291;28;20033;-75
2023/12/20 02:59:12;;;;;;;13.00;2.25;;;7.40;99.90;;;;;;5015132;28;20117;-78
2023/12/20 03:01:45;;;;;;;18.48;2.08;;;7.30;99.90;;;;;;5012363;28;20053;-76
2023/12/20 03:04:12;;;;;;;16.63;2.28;;;7.30;99.90;;;;;;5015145;28;20042;-77
2023/12/20 03:06:37;;;;;;;15.77;1.95;;;7.30;99.90;;;;;;5032288;28;20032;-76
2023/12/20 03:09:04;;;;;;;15.07;2.13;;;7.40;99.90;;;;;;5031904;28;20034;-78
2023/12/20 03:11:30;;;;;;;35.53;3.78;;;7.30;99.90;;;;;;5014913;28;20091;-77
2023/12/20 03:13:56;;;;;;;15.40;2.38;;;7.40;99.90;;;;;;5032822;28;20033;-76
2023/12/20 03:16:22;;;;;;;14.77;2.15;;;7.40;99.90;;;;;;5032693;28;20164;-76
2023/12/20 03:18:47;;;;;;;14.85;1.80;;;7.30;99.90;;;;;;5032900;28;20073;-76
2023/12/20 03:21:13;;;;;;;15.23;2.53;;;7.30;99.90;;;;;;5014451;28;20507;-77
2023/12/20 03:23:40;;;;;;;14.95;2.10;;;7.40;99.90;;;;;;5015159;28;20065;-75
2023/12/20 03:26:09;;;;;;;15.48;3.10;;;7.40;99.90;;;;;;5032421;28;20040;-75
2023/12/20 03:28:36;;;;;;;19.52;2.65;;;7.40;99.90;;;;;;5014308;28;20063;-76
2023/12/20 03:31:02;;;;;;;15.45;2.13;;;7.30;99.90;;;;;;5014852;28;20033;-76
2023/12/20 03:33:28;;;;;;;16.35;3.03;;;7.30;99.90;;;;;;5032844;28;20040;-78
2023/12/20 03:35:54;;;;;;;15.70;2.60;;;7.30;99.90;;;;;;5014869;28;20378;-77
2023/12/20 03:38:20;;;;;;;21.88;4.07;;;7.30;99.90;;;;;;5030669;28;20092;-76
2023/12/20 03:40:46;;;;;;;11.30;2.38;;;7.30;99.90;;;;;;5032115;28;20197;-76
2023/12/20 03:43:11;;;;;;;22.38;2.90;;;7.30;99.90;;;;;;5031345;28;20509;-76
2023/12/20 03:45:37;;;;;;;5.30;1.30;;;7.30;99.90;;;;;;5032076;28;20029;-78
2023/12/20 03:48:03;;;;;;;20.48;2.28;;;7.30;99.90;;;;;;5014208;28;20026;-77
2023/12/20 03:50:29;;;;;;;22.38;3.97;;;7.40;99.90;;;;;;5032083;28;20041;-75
2023/12/20 03:52:55;;;;;;;17.25;2.58;;;7.40;99.90;;;;;;5032092;28;20048;-77
2023/12/20 03:55:20;;;;;;;13.30;2.38;;;7.40;99.90;;;;;;5014530;28;20026;-77
2023/12/20 03:57:46;;;;;;;11.50;2.97;;;7.40;99.90;;;;;;5031847;28;20377;-77
2023/12/20 04:00:12;;;;;;;16.42;2.33;;;7.40;99.90;;;;;;5013656;28;20064;-78
2023/12/20 04:02:39;;;;;;;17.40;2.17;;;7.50;99.90;;;;;;5014088;28;20476;-77
2023/12/20 04:05:06;;;;;;;21.75;3.17;;;7.50;99.90;;;;;;5031755;28;20057;-78
2023/12/20 04:07:31;;;;;;;18.17;2.30;;;7.50;99.90;;;;;;5013870;28;20040;-76
2023/12/20 04:09:57;;;;;;;20.30;2.80;;;7.40;99.90;;;;;;5013846;28;20025;-79
2023/12/20 04:12:23;;;;;;;10.80;2.28;;;7.40;99.90;;;;;;5013596;28;20033;-78
2023/12/20 04:14:48;;;;;;;13.98;2.60;;;7.40;99.90;;;;;;5031097;28;20031;-76
2023/12/20 04:17:15;;;;;;;25.27;2.97;;;7.40;99.90;;;;;;5031655;28;20462;-78
2023/12/20 04:19:44;;;;;;;21.23;2.17;;;7.40;99.90;;;;;;5031640;28;20108;-79
2023/12/20 04:22:10;;;;;;;16.25;1.58;;;7.40;99.90;;;;;;5034112;28;20034;-77
2023/12/20 04:24:36;;;;;;;15.70;2.17;;;7.50;99.90;;;;;;5034878;28;20055;-79
2023/12/20 04:27:02;;;;;;;24.63;4.18;;;7.50;99.90;;;;;;5016939;28;20030;-76
2023/12/20 04:29:28;;;;;;;18.13;2.05;;;7.50;99.90;;;;;;5035479;28;20036;-76
2023/12/20 04:31:54;;;;;;;12.77;2.58;;;7.40;99.90;;;;;;5017546;28;20021;-77
2023/12/20 04:34:19;;;;;;;13.57;1.73;;;7.50;99.90;;;;;;5035152;28;20121;-78
2023/12/20 04:36:45;;;;;;;10.32;2.40;;;7.50;99.90;;;;;;5017472;28;20053;-77
2023/12/20 04:39:13;;;;;;;17.02;2.25;;;7.50;99.90;;;;;;5035167;28;20037;-77
2023/12/20 04:41:38;;;;;;;17.92;2.08;;;7.50;99.90;;;;;;5035360;28;20033;-77
2023/12/20 04:44:06;;;;;;;20.02;2.78;;;7.40;99.90;;;;;;5035591;28;20091;-79
2023/12/20 04:46:31;;;;;;;17.38;3.65;;;7.40;99.90;;;;;;5017638;28;20025;-78
2023/12/20 04:48:57;;;;;;;16.50;2.15;;;7.40;99.90;;;;;;5034881;28;20025;-79
2023/12/20 04:51:23;;;;;;;20.10;2.42;;;7.40;99.90;;;;;;5017158;28;20029;-80
2023/12/20 04:53:48;;;;;;;16.27;2.13;;;7.40;99.90;;;;;;5034782;28;20036;-78
2023/12/20 04:56:14;;;;;;;18.17;2.47;;;7.40;99.90;;;;;;5035028;28;20104;-77
2023/12/20 04:58:40;;;;;;;34.25;2.25;;;7.40;99.90;;;;;;5017360;28;20132;-76
2023/12/20 05:01:06;;;;;;;20.88;2.35;;;7.40;99.90;;;;;;5034861;28;20359;-79
2023/12/20 05:03:32;;;;;;;15.00;2.00;;;7.40;99.90;;;;;;5016658;28;20092;-78
2023/12/20 05:05:58;;;;;;;18.10;1.73;;;7.40;99.90;;;;;;5033655;28;20041;-75
2023/12/20 05:08:23;;;;;;;16.85;2.08;;;7.40;99.90;;;;;;5016615;28;20404;-79
2023/12/20 05:10:49;;;;;;;16.38;1.52;;;7.40;99.90;;;;;;5034185;28;20104;-79
2023/12/20 05:13:15;;;;;;;5.53;1.63;;;7.40;99.90;;;;;;5034905;28;20045;-80
2023/12/20 05:15:41;;;;;;;17.35;2.10;;;7.40;99.90;;;;;;5034887;28;20481;-78
2023/12/20 05:18:07;;;;;;;12.55;1.95;;;7.50;99.90;;;;;;5034723;28;20393;-76
2023/12/20 05:20:32;;;;;;;13.48;1.90;;;7.40;99.90;;;;;;5016409;28;20064;-78
2023/12/20 05:22:58;;;;;;;11.73;2.15;;;7.40;99.90;;;;;;5034057;28;20515;-79
2023/12/20 05:25:24;;;;;;;11.95;1.80;;;7.40;99.90;;;;;;5034802;28;20022;-77
2023/12/20 05:27:51;;;;;;;19.88;1.98;;;7.40;99.90;;;;;;5016493;28;20117;-76
2023/12/20 05:30:16;;;;;;;15.20;1.90;;;7.40;99.90;;;;;;5034576;28;20057;-77
2023/12/20 05:32:42;;;;;;;15.73;1.67;;;7.40;99.90;;;;;;5015686;28;20488;-77
2023/12/20 05:35:08;;;;;;;17.85;1.55;;;7.40;99.90;;;;;;5016684;28;20025;-79
2023/12/20 05:37:33;;;;;;;14.77;1.92;;;7.40;99.90;;;;;;5016328;28;20057;-78
2023/12/20 05:39:59;;;;;;;11.20;1.50;;;7.40;99.90;;;;;;5033713;28;20037;-78
2023/12/20 05:42:25;;;;;;;10.75;1.70;;;7.40;99.90;;;;;;5016215;28;20029;-79
2023/12/20 05:44:50;;;;;;;18.80;1.98;;;7.50;99.90;;;;;;5034921;28;20034;-79
2023/12/20 05:47:16;;;;;;;10.40;1.38;;;7.50;99.90;;;;;;5034286;28;20112;-76
2023/12/20 05:49:44;;;;;;;9.68;1.48;;;7.50;99.90;;;;;;5033488;28;20440;-79
2023/12/20 05:52:09;;;;;;;9.55;1.45;;;7.50;99.90;;;;;;5033586;28;20025;-79
2023/12/20 05:54:35;;;;;;;15.60;3.22;;;7.50;99.90;;;;;;5033734;28;20032;-77
2023/12/20 05:57:01;;;;;;;10.85;1.75;;;7.50;99.90;;;;;;5016308;28;20033;-76
2023/12/20 05:59:26;;;;;;;19.15;2.65;;;7.60;99.90;;;;;;5033938;28;20100;-77
2023/12/20 06:01:52;;;;;;;12.65;1.45;;;7.50;99.90;;;;;;5034072;28;20049;-77
2023/12/20 06:04:18;;;;;;;12.00;1.83;;;7.50;99.90;;;;;;5033977;28;20041;-76
2023/12/20 06:06:44;;;;;;;19.70;2.10;;;7.50;99.90;;;;;;5015955;28;20059;-76
2023/12/20 06:09:10;;;;;;;22.88;2.78;;;7.60;99.90;;;;;;5034316;28;20030;-76
2023/12/20 06:11:36;;;;;;;8.20;1.73;;;7.50;99.90;;;;;;5033156;28;20033;-76
2023/12/20 06:14:02;;;;;;;12.05;2.38;;;7.60;99.90;;;;;;5033887;28;20362;-78
2023/12/20 06:16:27;;;;;;;15.00;2.45;;;7.60;99.90;;;;;;5033954;28;20233;-76
2023/12/20 06:18:53;;;;;;;21.48;2.75;;;7.60;99.90;;;;;;5033705;28;20355;-77
2023/12/20 06:21:19;;;;;;;9.10;1.40;;;7.60;99.90;;;;;;5014793;28;20025;-79
2023/12/20 06:23:44;;;;;;;7.50;1.13;;;7.60;99.90;;;;;;5015189;28;20425;-77
2023/12/20 06:26:10;;;;;;;12.77;1.80;;;7.70;99.90;;;;;;5015248;28;20053;-77
2023/12/20 06:28:36;;;;;;;15.68;2.22;;;7.70;99.90;;;;;;5032800;28;20029;-76
2023/12/20 06:31:02;;;;;;;20.50;2.88;;;7.70;99.90;;;;;;5015168;28;20083;-79
2023/12/20 06:33:30;;;;;;;14.35;2.10;;;7.70;99.90;;;;;;5033207;28;20040;-78
2023/12/20 06:35:57;;;;;;;17.23;1.80;;;7.70;99.90;;;;;;5022961;28;20025;-78
2023/12/20 06:38:22;;;;;;;11.35;1.60;;;7.70;99.90;;;;;;5016582;28;20042;-78
2023/12/20 06:40:48;;;;;;;17.90;2.20;;;7.70;99.90;;;;;;5013519;28;20375;-77
2023/12/20 06:43:14;;;;;;;21.15;1.95;;;7.70;99.90;;;;;;5012569;28;20064;-78
2023/12/20 06:45:40;;;;;;;11.85;1.90;;;7.70;99.90;;;;;;5012842;28;20080;-78
2023/12/20 06:48:06;;;;;;;15.55;1.58;;;7.70;99.90;;;;;;5013322;28;20490;-77
2023/12/20 06:50:32;;;;;;;13.77;2.03;;;7.70;99.90;;;;;;5012952;28;20391;-77
2023/12/20 06:52:58;;;;;;;18.08;2.67;;;7.70;99.90;;;;;;5012881;28;20061;-77
2023/12/20 06:55:23;;;;;;;10.23;1.70;;;7.70;99.90;;;;;;5012858;28;20439;-77
2023/12/20 06:57:49;;;;;;;20.98;1.95;;;7.70;99.90;;;;;;5012910;28;20084;-77
2023/12/20 07:00:15;;;;;;;15.05;1.90;;;7.70;99.90;;;;;;4994744;28;20119;-78
2023/12/20 07:02:41;;;;;;;16.80;2.35;;;7.70;99.90;;;;;;5012682;28;20030;-77
2023/12/20 07:05:07;;;;;;;15.63;2.33;;;7.70;99.90;;;;;;4994625;28;20029;-77
2023/12/20 07:07:33;;;;;;;18.80;2.33;;;7.70;99.90;;;;;;4994781;28;20381;-77
2023/12/20 07:09:58;;;;;;;12.05;1.55;;;7.70;99.90;;;;;;5012912;28;20334;-76
2023/12/20 07:12:24;;;;;;;19.73;2.28;;;7.70;99.90;;;;;;4994793;28;20026;-77
2023/12/20 07:14:50;;;;;;;24.10;2.20;;;7.60;99.90;;;;;;5012322;28;20041;-77
2023/12/20 07:17:16;;;;;;;19.38;2.00;;;7.60;99.90;;;;;;5012222;28;20097;-76
2023/12/20 07:19:42;;;;;;;14.90;1.60;;;7.60;99.90;;;;;;4994816;28;20021;-76
2023/12/20 07:22:08;;;;;;;13.63;1.65;;;7.60;99.90;;;;;;5013202;28;20486;-78
2023/12/20 07:24:34;;;;;;;15.32;2.28;;;7.60;99.90;;;;;;4994453;28;20053;-79
2023/12/20 07:27:00;;;;;;;10.48;2.08;;;7.60;99.90;;;;;;5012477;28;20033;-75
2023/12/20 07:29:26;;;;;;;7.07;1.38;;;7.60;99.90;;;;;;5011123;28;20072;-77
2023/12/20 07:31:53;;;;;;;12.43;1.67;;;7.60;99.90;;;;;;5010904;28;20505;-77
2023/12/20 07:34:22;;;;;;;10.93;1.48;;;7.50;99.90;;;;;;5012616;28;20366;-77
2023/12/20 07:36:48;;;;;;;12.77;1.40;;;7.60;99.90;;;;;;5012112;28;20062;-78
2023/12/20 07:39:14;;;;;;;9.98;1.20;;;7.50;99.90;;;;;;5012180;28;20049;-80
2023/12/20 07:41:40;;;;;;;8.05;1.45;;;7.50;99.90;;;;;;4994647;28;20490;-77
2023/12/20 07:44:07;;;;;;;13.73;2.65;;;7.50;99.90;;;;;;4994414;28;20129;-77
2023/12/20 07:46:33;;;;;;;5.43;1.05;;;7.50;99.90;;;;;;5005251;28;20174;-76
2023/12/20 07:48:59;;;;;;;8.98;0.98;;;7.40;99.90;;;;;;5012985;28;20025;-77
2023/12/20 07:51:24;;;;;;;9.98;1.30;;;7.50;99.90;;;;;;5031161;28;20033;-78
2023/12/20 07:53:51;;;;;;;14.63;1.30;;;7.50;99.90;;;;;;5030580;28;20041;-78
2023/12/20 07:56:19;;;;;;;13.68;1.40;;;7.50;99.90;;;;;;5032951;28;20033;-77
2023/12/20 07:58:45;;;;;;;9.00;1.88;;;7.50;99.90;;;;;;5034660;28;20364;-76
2023/12/20 08:01:11;;;;;;;14.35;1.88;;;7.50;99.90;;;;;;5029678;28;20045;-76
2023/12/20 08:03:38;;;;;;;13.00;3.05;;;7.50;99.90;;;;;;5028396;28;20040;-76
2023/12/20 08:06:05;;;;;;;13.98;1.88;;;7.50;99.90;;;;;;5025253;28;20038;-77
2023/12/20 08:08:31;;;;;;;12.95;1.70;;;7.50;99.90;;;;;;5018132;28;20021;-77
2023/12/20 08:10:59;;;;;;;12.93;1.40;;;7.50;99.90;;;;;;5000837;28;20493;-78
2023/12/20 08:13:25;;;;;;;12.50;1.90;;;7.50;99.90;;;;;;5028606;28;20034;-78
2023/12/20 08:15:52;;;;;;;8.38;1.55;;;7.50;99.90;;;;;;5029568;28;20037;-77
2023/12/20 08:18:18;;;;;;;7.30;1.05;;;7.50;99.90;;;;;;5026113;28;20021;-77
2023/12/20 08:20:43;;;;;;;14.40;1.73;;;7.50;99.90;;;;;;5032123;28;20052;-77
2023/12/20 08:23:09;;;;;;;15.82;1.80;;;7.50;99.90;;;;;;5034916;28;20029;-78
2023/12/20 08:25:35;;;;;;;8.05;1.42;;;7.50;99.90;;;;;;5017109;28;20040;-77
2023/12/20 08:28:04;;;;;;;12.68;1.63;;;7.50;99.90;;;;;;5015742;28;20026;-78
2023/12/20 08:30:31;;;;;;;8.88;1.38;;;7.50;99.90;;;;;;5015771;28;20099;-78
2023/12/20 08:32:57;;;;;;;14.30;2.08;;;7.50;99.90;;;;;;5016782;28;20031;-77
2023/12/20 08:35:24;;;;;;;10.23;1.88;;;7.50;99.90;;;;;;5017802;28;20048;-79
2023/12/20 08:37:49;;;;;;;10.95;1.10;;;7.60;99.90;;;;;;5034715;28;20029;-76
2023/12/20 08:40:15;;;;;;;15.25;1.60;;;7.50;99.90;;;;;;5035450;28;20027;-78
2023/12/20 08:42:41;;;;;;;15.02;1.90;;;7.60;99.90;;;;;;5017196;28;20042;-77
2023/12/20 08:45:07;;;;;;;19.10;2.88;;;7.60;99.90;;;;;;5034681;28;20029;-77
2023/12/20 08:47:32;;;;;;;11.32;1.63;;;7.60;99.90;;;;;;5035739;28;20089;-77
2023/12/20 08:49:59;;;;;;;11.50;1.48;;;7.60;99.90;;;;;;5035765;28;20450;-77
2023/12/20 08:52:27;;;;;;;14.27;1.65;;;7.60;99.90;;;;;;5032801;28;20026;-79
2023/12/20 08:54:53;;;;;;;9.75;2.00;;;7.60;99.90;;;;;;5035817;28;20030;-77
2023/12/20 08:57:26;;;;;;;11.68;3.17;;;7.60;99.90;;;;;;5036082;28;20057;-79
2023/12/20 08:59:51;;;;;;;14.43;1.80;;;7.60;99.90;;;;;;5036036;28;20388;-77
2023/12/20 09:02:17;;;;;;;8.93;3.22;;;7.60;99.90;;;;;;5025526;28;20529;-78
2023/12/20 09:04:43;;;;;;;10.88;2.13;;;7.70;99.90;;;;;;5016769;28;20079;-76
2023/12/20 09:07:25;;;;;;;12.38;1.35;;;7.70;99.90;;;;;;5035742;28;20029;-77
2023/12/20 09:09:51;;;;;;;8.32;0.98;;;7.70;99.90;;;;;;5014884;28;20030;-78
2023/12/20 09:12:19;;;;;;;13.55;1.65;;;7.70;99.90;;;;;;5011035;28;20021;-78
2023/12/20 09:14:45;;;;;;;5.20;1.40;;;7.70;99.90;;;;;;5033622;28;20037;-80
2023/12/20 09:17:11;;;;;;;7.80;1.30;;;7.70;99.90;;;;;;5016545;28;20477;-77
2023/12/20 09:19:38;;;;;;;8.00;1.02;;;7.70;99.90;;;;;;5034168;28;20032;-77
2023/12/20 09:22:05;;;;;;;6.57;1.25;;;7.70;99.90;;;;;;5033208;28;20021;-76
2023/12/20 09:24:31;;;;;;;9.27;1.60;;;7.70;99.90;;;;;;5034575;28;20047;-78
2023/12/20 09:26:57;;;;;;;7.70;1.35;;;7.70;99.90;;;;;;5033523;28;20104;-77
2023/12/20 09:29:24;;;;;;;7.60;1.45;;;7.80;99.90;;;;;;5015805;28;20108;-78
2023/12/20 09:31:50;;;;;;;9.15;1.17;;;7.70;99.90;;;;;;5034102;28;20511;-79
2023/12/20 09:34:17;;;;;;;4.38;0.88;;;7.70;99.90;;;;;;5016129;28;20034;-79
2023/12/20 09:36:49;;;;;;;4.38;0.80;;;7.70;99.90;;;;;;5015915;28;20029;-79
2023/12/20 09:39:19;;;;;;;8.98;1.30;;;7.70;99.90;;;;;;5033766;28;20080;-79
2023/12/20 09:41:46;;;;;;;4.65;0.85;;;7.70;99.90;;;;;;5015396;28;20033;-80
2023/12/20 09:44:15;;;;;;;4.68;1.10;;;7.70;99.90;;;;;;5016123;28;20044;-79
2023/12/20 09:46:44;;;;;;;6.68;1.88;;;7.70;99.90;;;;;;5034795;28;20116;-78
2023/12/20 09:49:11;;;;;;;4.72;1.30;;;7.70;99.90;;;;;;5026797;28;20570;-78
2023/12/20 09:51:37;;;;;;;3.70;1.10;;;7.70;99.90;;;;;;5002046;28;20033;-78
2023/12/20 09:54:05;;;;;;;12.80;2.03;;;7.70;99.90;;;;;;5032620;28;20036;-78
2023/12/20 09:56:31;;;;;;;6.72;1.40;;;7.70;99.90;;;;;;5018731;28;20037;-80
2023/12/20 09:58:58;;;;;;;7.88;1.33;;;7.70;99.90;;;;;;5015789;28;20037;-77
2023/12/20 10:01:29;;;;;;;5.70;1.23;;;7.80;99.90;;;;;;5016026;28;20050;-80
2023/12/20 10:03:55;;;;;;;10.00;1.23;;;7.70;99.90;;;;;;5013897;28;20635;-77
2023/12/20 10:06:22;;;;;;;5.13;1.02;;;7.70;99.90;;;;;;5014028;28;20060;-80
2023/12/20 10:08:48;;;;;;;5.18;0.90;;;7.70;99.90;;;;;;5032242;28;20021;-81
2023/12/20 10:11:14;;;;;;;8.48;1.17;;;7.70;99.90;;;;;;5014125;28;20029;-76
2023/12/20 10:13:41;;;;;;;5.18;1.02;;;7.80;99.90;;;;;;5032368;28;20033;-80
2023/12/20 10:16:07;;;;;;;7.75;1.08;;;7.80;99.90;;;;;;5032871;28;20022;-79
2023/12/20 10:18:33;;;;;;;4.25;0.98;;;7.80;99.90;;;;;;5032239;28;20030;-77
2023/12/20 10:21:00;;;;;;;3.00;0.70;;;7.90;99.90;;;;;;5033574;28;20055;-78
2023/12/20 10:23:26;;;;;;;2.58;0.65;;;7.90;99.90;;;;;;5032630;28;20037;-79
2023/12/20 10:25:59;;;;;;;3.95;0.60;;;7.90;99.90;;;;;;5014764;28;20048;-79
2023/12/20 10:28:27;;;;;;;3.15;0.77;;;7.90;99.90;;;;;;5031657;28;20036;-78
2023/12/20 10:30:56;;;;;;;1.48;0.55;;;7.90;99.90;;;;;;5014755;28;20033;-79
2023/12/20 10:33:26;;;;;;;1.67;0.50;;;8.00;99.90;;;;;;5033470;28;20036;-78
2023/12/20 10:35:53;;;;;;;2.42;0.63;;;8.00;99.90;;;;;;5031831;28;20038;-77
2023/12/20 10:38:19;;;;;;;1.02;0.28;;;8.00;99.90;;;;;;5012131;28;20506;-79
2023/12/20 10:40:46;;;;;;;0.00;0.00;;;8.00;99.90;;;;;;5011815;28;20028;-79
2023/12/20 10:43:14;;;;;;;2.10;0.85;;;8.10;99.90;;;;;;5027909;28;20033;-78
2023/12/20 10:45:43;;;;;;;1.77;0.38;;;8.10;99.90;;;;;;5029946;28;20059;-79
2023/12/20 10:48:10;;;;;;;0.20;0.20;;;8.10;99.90;;;;;;5008592;28;20046;-77
2023/12/20 10:50:41;;;;;;;0.55;0.47;;;8.10;99.90;;;;;;5021146;28;20124;-78
2023/12/20 10:53:07;;;;;;;;;;;8.20;99.90;;;;;;5006451;28;20032;-80
2023/12/20 10:55:34;;;;;;;3.70;0.63;;;8.20;99.90;;;;;;5029572;28;19909;-77
2023/12/20 10:58:07;;;;;;;4.72;0.57;;;8.20;99.90;;;;;;5011822;28;20025;-79
2023/12/20 11:00:38;;;;;;;1.80;0.82;;;8.20;99.90;;;;;;5029056;28;20077;-80
2023/12/20 11:03:08;;;;;;;6.40;1.10;;;8.20;99.90;;;;;;5029202;28;20037;-78
2023/12/20 11:06:03;;;;;;;8.75;1.20;;;8.20;99.90;;;;;;5024619;28;20121;-78
2023/12/20 11:08:41;;;;;;;3.58;1.65;;;8.20;99.90;;;;;;5026813;28;20040;-76
2023/12/20 11:11:18;;;;;;;8.90;1.98;;;8.30;99.90;;;;;;5030289;28;20029;-77
2023/12/20 11:13:54;;;;;;;4.35;0.75;;;8.30;99.90;;;;;;5030523;28;20033;-81
2023/12/20 11:16:20;;;;;;;4.93;1.20;;;8.30;99.90;;;;;;5030928;28;20160;-78
2023/12/20 11:18:49;;;;;;;9.50;1.00;;;8.30;99.90;;;;;;5029955;28;20057;-81
2023/12/20 11:21:16;;;;;;;3.03;1.15;;;8.30;99.90;;;;;;5014231;28;20025;-76
2023/12/20 11:23:42;;;;;;;4.85;1.33;;;8.30;99.90;;;;;;5032206;28;20389;-80
2023/12/20 11:26:08;;;;;;;5.80;1.10;;;8.40;99.90;;;;;;5013662;28;20029;-77
2023/12/20 11:28:34;;;;;;;6.75;1.40;;;8.40;99.90;;;;;;5027661;28;20112;-76
2023/12/20 11:31:02;;;;;;;9.02;1.27;;;8.40;99.90;;;;;;5028881;28;20104;-77
2023/12/20 11:33:39;;;;;;;14.10;2.00;;;8.40;99.90;;;;;;5030145;28;20037;-78
2023/12/20 11:36:14;;;;;;;12.13;1.90;;;8.40;99.90;;;;;;5013282;28;20028;-76
2023/12/20 11:38:59;;;;;;;10.20;2.00;;;8.40;99.90;;;;;;5029043;28;20417;-76
2023/12/20 11:41:26;;;;;;;9.80;2.85;;;8.40;99.90;;;;;;5029679;28;20026;-78
2023/12/20 11:43:56;;;;;;;8.73;1.90;;;8.40;99.90;;;;;;5030088;28;20437;-80
2023/12/20 11:46:22;;;;;;;18.70;2.20;;;8.50;99.90;;;;;;5029041;28;20113;-76
2023/12/20 11:48:48;;;;;;;18.65;2.97;;;8.50;99.90;;;;;;5028786;28;20034;-77
2023/12/20 11:51:14;;;;;;;10.98;1.88;;;8.50;99.90;;;;;;5029903;28;20095;-75
2023/12/20 11:53:42;;;;;;;9.30;1.60;;;8.50;99.90;;;;;;5029719;28;20022;-76
2023/12/20 11:56:08;;;;;;;21.63;4.30;;;8.50;99.90;;;;;;5029993;28;20017;-78
2023/12/20 11:58:35;;;;;;;14.57;2.95;;;8.60;99.90;;;;;;5029169;28;20037;-76
2023/12/20 12:01:04;;;;;;;14.93;1.77;;;8.60;99.90;;;;;;5011642;28;20136;-77
2023/12/20 12:03:30;;;;;;;13.10;1.77;;;8.60;99.90;;;;;;5029107;28;20145;-77
2023/12/20 12:05:56;;;;;;;9.30;1.83;;;8.70;99.90;;;;;;5030099;28;20022;-76
2023/12/20 12:08:21;;;;;;;7.97;1.92;;;8.70;99.90;;;;;;5030012;28;20057;-75
2023/12/20 12:10:47;;;;;;;8.63;1.55;;;8.70;99.90;;;;;;5029459;28;20025;-76
2023/12/20 12:13:16;;;;;;;10.55;1.52;;;8.70;99.90;;;;;;5011859;28;20410;-76
2023/12/20 12:15:43;;;;;;;10.00;2.05;;;8.70;99.90;;;;;;5029422;28;20029;-76
2023/12/20 12:18:10;;;;;;;8.30;2.03;;;8.70;99.90;;;;;;5028851;28;20061;-76
2023/12/20 12:20:35;;;;;;;6.63;1.15;;;8.80;99.90;;;;;;5029523;28;20021;-75
2023/12/20 12:23:06;;;;;;;7.75;1.45;;;8.80;99.90;;;;;;5010250;28;20552;-76
2023/12/20 12:25:34;;;;;;;12.13;5.00;;;8.80;99.90;;;;;;5029296;28;20034;-76
2023/12/20 12:28:00;;;;;;;9.05;1.30;;;8.80;99.90;;;;;;5027235;28;20532;-75
2023/12/20 12:30:26;;;;;;;9.82;1.60;;;8.80;99.90;;;;;;5028585;28;20052;-76
2023/12/20 12:33:00;;;;;;;10.70;1.55;;;8.80;99.90;;;;;;5028921;28;20030;-76
2023/12/20 12:35:26;;;;;;;9.82;2.08;;;8.80;99.90;;;;;;5029067;28;20017;-76
2023/12/20 12:37:52;;;;;;;5.88;1.42;;;8.80;99.90;;;;;;5011370;28;20036;-76
2023/12/20 12:40:18;;;;;;;7.05;1.10;;;8.80;99.90;;;;;;5011901;28;20413;-78
2023/12/20 12:42:45;;;;;;;10.73;1.77;;;8.80;99.90;;;;;;5031601;28;20029;-79
2023/12/20 12:45:11;;;;;;;8.60;1.90;;;8.80;99.90;;;;;;5033070;28;20032;-79
2023/12/20 12:47:38;;;;;;;5.90;0.98;;;8.80;99.90;;;;;;5033102;28;20034;-79